createdAt,value
2023-01-29T00:01:49.183Z,2.94
2023-01-29T00:06:52.029Z,1.73
2023-01-29T00:11:54.752Z,4.76
2023-01-29T00:16:57.484Z,4.34
2023-01-29T00:22:00.322Z,2.27
2023-01-29T00:27:03.762Z,3.23
2023-01-29T00:32:06.584Z,3.74
2023-01-29T00:37:09.339Z,2.31
2023-01-29T00:42:30.700Z,4.32
2023-01-29T00:47:33.852Z,2.53
2023-01-29T00:52:37.320Z,3.74
2023-01-29T00:57:40.324Z,3.00
2023-01-29T01:03:01.650Z,3.24
2023-01-29T01:08:24.917Z,3.61
2023-01-29T01:13:28.161Z,2.91
2023-01-29T01:18:31.429Z,4.81
2023-01-29T01:23:34.802Z,2.61
2023-01-29T01:28:37.586Z,3.72
2023-01-29T01:33:41.385Z,2.96
2023-01-29T01:38:44.688Z,3.84
2023-01-29T01:44:06.770Z,4.79
2023-01-29T01:49:12.011Z,2.38
2023-01-29T01:54:21.792Z,3.70
2023-01-29T01:59:24.682Z,3.72
2023-01-29T02:04:46.337Z,3.94
2023-01-29T02:09:56.497Z,3.64
2023-01-29T02:15:00.407Z,3.16
2023-01-29T02:20:18.112Z,5.16
2023-01-29T02:25:39.538Z,3.17
2023-01-29T02:30:53.329Z,5.21
2023-01-29T02:36:10.225Z,3.22
2023-01-29T02:41:22.463Z,4.40
2023-01-29T02:46:47.075Z,3.58
2023-01-29T02:51:54.945Z,4.52
2023-01-29T02:57:09.997Z,3.92
2023-01-29T03:02:18.856Z,5.04
2023-01-29T03:07:46.717Z,3.74
2023-01-29T03:12:59.768Z,4.88
2023-01-29T03:18:11.800Z,3.91
2023-01-29T03:23:23.823Z,5.18
2023-01-29T03:28:49.105Z,3.53
2023-01-29T03:33:59.862Z,5.09
2023-01-29T03:39:02.597Z,3.64
2023-01-29T03:44:28.231Z,5.50
2023-01-29T03:49:49.766Z,3.56
2023-01-29T03:55:26.883Z,5.01
2023-01-29T04:00:37.556Z,3.61
2023-01-29T04:05:45.068Z,4.72
2023-01-29T04:10:51.193Z,4.66
2023-01-29T04:15:58.333Z,3.75
2023-01-29T04:21:01.764Z,4.95
2023-01-29T04:26:24.850Z,3.68
2023-01-29T04:31:34.608Z,5.52
2023-01-29T04:36:49.779Z,3.85
2023-01-29T04:42:10.624Z,5.02
2023-01-29T04:47:28.909Z,4.17
2023-01-29T04:52:50.826Z,5.14
2023-01-29T04:58:04.493Z,4.08
2023-01-29T05:03:09.765Z,5.25
2023-01-29T05:08:17.059Z,4.00
2023-01-29T05:13:22.202Z,4.97
2023-01-29T05:18:24.921Z,4.36
2023-01-29T05:23:27.612Z,5.01
2023-01-29T05:28:30.689Z,4.01
2023-01-29T05:33:33.420Z,5.39
2023-01-29T05:38:36.117Z,4.04
2023-01-29T05:43:38.834Z,5.70
2023-01-29T05:48:41.580Z,4.12
2023-01-29T05:53:44.321Z,5.46
2023-01-29T05:58:47.439Z,4.15
2023-01-29T06:03:50.338Z,4.99
2023-01-29T06:08:53.138Z,5.66
2023-01-29T06:13:55.791Z,4.33
2023-01-29T06:18:58.624Z,6.03
2023-01-29T06:24:01.451Z,4.12
2023-01-29T06:29:04.176Z,5.76
2023-01-29T06:34:08.487Z,4.35
2023-01-29T06:39:11.329Z,4.72
2023-01-29T06:44:14.072Z,5.69
2023-01-29T06:49:16.873Z,4.23
2023-01-29T06:54:19.571Z,6.02
2023-01-29T06:59:22.291Z,4.24
2023-01-29T07:04:25.069Z,6.01
2023-01-29T07:09:27.723Z,5.16
2023-01-29T07:14:30.468Z,5.33
2023-01-29T07:19:33.281Z,6.23
2023-01-29T07:24:36.074Z,4.15
2023-01-29T07:29:38.871Z,6.11
2023-01-29T07:34:41.672Z,5.23
2023-01-29T07:39:44.590Z,4.51
2023-01-29T07:44:47.274Z,5.17
2023-01-29T07:49:50.079Z,4.61
2023-01-29T07:54:52.879Z,5.53
2023-01-29T07:59:55.685Z,4.85
2023-01-29T08:04:58.357Z,6.44
2023-01-29T08:10:01.050Z,4.32
2023-01-29T08:15:04.402Z,5.52
2023-01-29T08:20:07.701Z,5.24
2023-01-29T08:25:10.700Z,4.83
2023-01-29T08:30:13.919Z,5.62
2023-01-29T08:35:16.862Z,4.75
2023-01-29T08:40:19.869Z,5.81
2023-01-29T08:45:22.768Z,4.75
2023-01-29T08:50:25.648Z,5.67
2023-01-29T08:55:29.249Z,4.58
2023-01-29T09:00:33.391Z,6.46
2023-01-29T09:05:37.930Z,5.07
2023-01-29T09:10:40.841Z,6.05
2023-01-29T09:15:43.550Z,5.27
2023-01-29T09:20:46.212Z,5.63
2023-01-29T09:25:49.553Z,5.40
2023-01-29T09:30:53.617Z,5.05
2023-01-29T09:35:56.974Z,6.23
2023-01-29T09:41:14.748Z,5.08
2023-01-29T09:46:39.462Z,6.22
2023-01-29T09:51:47.658Z,4.93
2023-01-29T09:56:55.024Z,6.66
2023-01-29T10:02:22.909Z,5.68
2023-01-29T10:07:59.460Z,6.69
2023-01-29T10:13:20.205Z,5.93
2023-01-29T10:18:32.104Z,6.41
2023-01-29T10:23:41.068Z,5.58
2023-01-29T10:28:47.754Z,6.06
2023-01-29T10:34:24.039Z,7.36
2023-01-29T10:39:27.270Z,5.62
2023-01-29T10:44:39.673Z,6.63
2023-01-29T10:50:11.504Z,5.56
2023-01-29T10:55:52.349Z,6.75
2023-01-29T11:00:55.412Z,5.57
2023-01-29T11:06:00.927Z,7.26
2023-01-29T11:11:15.559Z,5.46
2023-01-29T11:16:18.333Z,6.86
2023-01-29T11:21:21.611Z,5.54
2023-01-29T11:26:24.417Z,6.71
2023-01-29T11:31:35.792Z,5.52
2023-01-29T11:36:39.829Z,6.66
2023-01-29T11:41:45.005Z,5.70
2023-01-29T11:46:49.069Z,6.52
2023-01-29T11:51:56.095Z,6.28
2023-01-29T11:56:58.940Z,6.36
2023-01-29T12:02:26.733Z,6.66
2023-01-29T12:07:30.862Z,6.01
2023-01-29T12:12:40.049Z,6.45
2023-01-29T12:17:50.903Z,6.03
2023-01-29T12:22:57.945Z,6.40
2023-01-29T12:28:09.666Z,6.03
2023-01-29T12:33:41.395Z,6.86
2023-01-29T12:38:45.222Z,5.76
2023-01-29T12:43:57.935Z,7.23
2023-01-29T12:49:05.035Z,5.66
2023-01-29T12:54:12.221Z,6.73
2023-01-29T12:59:29.227Z,5.99
2023-01-29T13:04:44.325Z,6.65
2023-01-29T13:09:53.427Z,6.12
2023-01-29T13:15:05.445Z,6.58
2023-01-29T13:20:30.102Z,6.14
2023-01-29T13:25:33.248Z,7.21
2023-01-29T13:30:37.482Z,5.89
2023-01-29T13:35:43.149Z,7.36
2023-01-29T13:40:50.812Z,5.87
2023-01-29T13:45:54.807Z,6.86
2023-01-29T13:51:02.209Z,5.98
2023-01-29T13:56:44.155Z,7.59
2023-01-29T14:01:46.773Z,5.76
2023-01-29T14:06:54.581Z,7.26
2023-01-29T14:11:57.463Z,6.00
2023-01-29T14:17:03.436Z,7.07
2023-01-29T14:22:06.350Z,6.48
2023-01-29T14:27:21.639Z,6.52
2023-01-29T14:32:26.311Z,6.76
2023-01-29T14:37:34.460Z,6.47
2023-01-29T14:42:58.615Z,6.27
2023-01-29T14:48:04.939Z,6.84
2023-01-29T14:53:35.491Z,7.04
2023-01-29T14:59:02.521Z,6.40
2023-01-29T15:04:11.993Z,6.76
2023-01-29T15:09:35.889Z,6.51
2023-01-29T15:14:52.453Z,6.49
2023-01-29T15:19:56.945Z,7.18
2023-01-29T15:25:20.437Z,5.77
2023-01-29T15:30:29.354Z,6.73
2023-01-29T15:35:37.605Z,6.54
2023-01-29T15:40:40.471Z,6.48
2023-01-29T15:45:43.408Z,7.26
2023-01-29T15:50:47.529Z,6.04
2023-01-29T15:55:51.687Z,7.13
2023-01-29T16:00:57.232Z,6.65
2023-01-29T16:06:01.684Z,7.00
2023-01-29T16:11:07.296Z,6.26
2023-01-29T16:16:16.274Z,7.11
2023-01-29T16:21:41.393Z,5.93
2023-01-29T16:26:47.758Z,7.26
2023-01-29T16:31:53.045Z,6.87
2023-01-29T16:36:57.181Z,7.29
2023-01-29T16:42:22.777Z,6.34
2023-01-29T16:47:28.903Z,7.04
2023-01-29T16:52:34.063Z,7.26
2023-01-29T16:57:39.209Z,5.93
2023-01-29T17:02:42.032Z,7.38
2023-01-29T17:07:46.460Z,6.21
2023-01-29T17:13:05.955Z,7.38
2023-01-29T17:18:25.044Z,6.46
2023-01-29T17:23:28.230Z,7.56
2023-01-29T17:28:31.054Z,6.41
2023-01-29T17:33:36.313Z,7.69
2023-01-29T17:38:39.794Z,6.19
2023-01-29T17:43:44.361Z,7.24
2023-01-29T17:48:49.247Z,5.87
2023-01-29T17:53:51.957Z,7.48
2023-01-29T17:58:54.817Z,6.09
2023-01-29T18:03:57.530Z,7.20
2023-01-29T18:09:00.524Z,6.61
2023-01-29T18:14:13.512Z,7.06
2023-01-29T18:19:27.285Z,6.31
2023-01-29T18:24:31.449Z,7.33
2023-01-29T18:29:34.964Z,5.98
2023-01-29T18:34:38.328Z,7.59
2023-01-29T18:39:40.985Z,6.23
2023-01-29T18:44:43.680Z,7.35
2023-01-29T18:49:46.481Z,6.51
2023-01-29T18:54:50.105Z,7.02
2023-01-29T18:59:52.831Z,6.88
2023-01-29T19:04:55.627Z,7.50
2023-01-29T19:09:58.337Z,6.96
2023-01-29T19:15:01.410Z,6.76
2023-01-29T19:20:04.956Z,7.51
2023-01-29T19:25:08.331Z,5.98
2023-01-29T19:30:12.997Z,6.83
2023-01-29T19:35:16.033Z,7.38
2023-01-29T19:40:19.833Z,6.91
2023-01-29T19:45:49.137Z,7.28
2023-01-29T19:50:53.687Z,6.57
2023-01-29T19:55:58.971Z,7.24
2023-01-29T20:01:07.684Z,7.23
2023-01-29T20:06:11.439Z,6.49
2023-01-29T20:11:15.291Z,7.77
2023-01-29T20:16:19.322Z,6.45
2023-01-29T20:21:22.610Z,7.83
2023-01-29T20:26:25.756Z,6.07
2023-01-29T20:31:28.933Z,6.97
2023-01-29T20:36:32.021Z,7.46
2023-01-29T20:41:35.024Z,6.86
2023-01-29T20:46:38.518Z,6.95
2023-01-29T20:51:41.217Z,7.48
2023-01-29T20:56:46.172Z,6.85
2023-01-29T21:01:50.236Z,6.82
2023-01-29T21:06:53.000Z,7.31
2023-01-29T21:11:55.761Z,6.79
2023-01-29T21:16:58.650Z,6.92
2023-01-29T21:22:01.418Z,7.38
2023-01-29T21:27:04.126Z,7.67
2023-01-29T21:32:07.052Z,6.37
2023-01-29T21:37:09.917Z,6.90
2023-01-29T21:42:31.420Z,7.70
2023-01-29T21:47:34.157Z,6.55
2023-01-29T21:52:37.062Z,7.57
2023-01-29T21:57:40.141Z,6.27
2023-01-29T22:02:43.041Z,7.22
2023-01-29T22:07:46.182Z,6.89
2023-01-29T22:12:49.088Z,7.24
2023-01-29T22:17:51.892Z,6.75
2023-01-29T22:22:54.689Z,7.25
2023-01-29T22:27:57.395Z,7.14
2023-01-29T22:33:00.113Z,6.66
2023-01-29T22:38:03.891Z,7.61
2023-01-29T22:43:07.009Z,6.81
2023-01-29T22:48:09.729Z,7.00
2023-01-29T22:53:12.527Z,7.03
2023-01-29T22:58:15.223Z,6.72
2023-01-29T23:03:17.943Z,7.62
2023-01-29T23:08:20.929Z,6.83
2023-01-29T23:13:23.692Z,7.28
2023-01-29T23:18:26.424Z,6.58
2023-01-29T23:23:30.669Z,7.32
2023-01-29T23:28:33.369Z,7.14
2023-01-29T23:33:36.098Z,6.64
2023-01-29T23:38:39.432Z,7.40
2023-01-29T23:43:42.386Z,6.32
2023-01-29T23:48:45.078Z,7.22
2023-01-29T23:53:47.778Z,5.98
2023-01-29T23:58:57.332Z,7.48
